createdAt,value
2019-02-14T00:01:18.045Z,103089.37
2019-02-14T00:03:47.908Z,103094.58
2019-02-14T00:06:17.793Z,103094.16
2019-02-14T00:08:47.655Z,103097.69
2019-02-14T00:11:18.124Z,103101.22
2019-02-14T00:13:48.073Z,103103.03
2019-02-14T00:16:18.317Z,103098.77
2019-02-14T00:18:48.255Z,103096.23
2019-02-14T00:21:18.060Z,103096.31
2019-02-14T00:23:48.260Z,103095.58
2019-02-14T00:26:18.520Z,103088.23
2019-02-14T00:28:48.461Z,103093.06
2019-02-14T00:31:18.426Z,103087.02
2019-02-14T00:33:48.300Z,103082.70
2019-02-14T00:36:18.167Z,103081.90
2019-02-14T00:38:48.118Z,103078.45
2019-02-14T00:41:18.379Z,103077.58
2019-02-14T00:43:48.171Z,103085.47
2019-02-14T00:46:18.052Z,103092.92
2019-02-14T00:48:48.963Z,103090.31
2019-02-14T00:51:19.171Z,103086.80
2019-02-14T00:53:49.734Z,103090.28
2019-02-14T00:56:20.021Z,103087.22
2019-02-14T00:58:49.897Z,103084.14
2019-02-14T01:01:19.824Z,103086.70
2019-02-14T01:03:49.763Z,103089.74
2019-02-14T01:06:19.704Z,103084.90
2019-02-14T01:08:49.559Z,103090.99
2019-02-14T01:11:19.501Z,103094.05
2019-02-14T01:13:49.449Z,103096.64
2019-02-14T01:16:19.391Z,103088.82
2019-02-14T01:18:50.445Z,103084.52
2019-02-14T01:21:20.400Z,103093.69
2019-02-14T01:23:50.368Z,103087.17
2019-02-14T01:26:20.571Z,103086.76
2019-02-14T01:28:50.447Z,103092.88
2019-02-14T01:31:20.602Z,103084.21
2019-02-14T01:33:50.430Z,103084.27
2019-02-14T01:36:21.052Z,103076.98
2019-02-14T01:38:51.574Z,103081.41
2019-02-14T01:41:21.374Z,103079.28
2019-02-14T01:43:51.312Z,103079.82
2019-02-14T01:46:21.265Z,103075.97
2019-02-14T01:48:51.210Z,103073.45
2019-02-14T01:51:21.180Z,103083.94
2019-02-14T01:53:51.095Z,103082.27
2019-02-14T01:56:21.040Z,103080.97
2019-02-14T01:58:51.970Z,103084.46
2019-02-14T02:01:21.916Z,103075.76
2019-02-14T02:03:51.778Z,103078.39
2019-02-14T02:06:22.066Z,103074.94
2019-02-14T02:08:52.582Z,103076.27
2019-02-14T02:11:22.810Z,103076.75
2019-02-14T02:13:53.001Z,103075.93
2019-02-14T02:16:23.028Z,103077.71
2019-02-14T02:18:52.904Z,103074.18
2019-02-14T02:21:24.168Z,103077.71
2019-02-14T02:23:53.956Z,103081.13
2019-02-14T02:26:23.899Z,103078.52
2019-02-14T02:28:54.232Z,103073.39
2019-02-14T02:31:24.183Z,103076.06
2019-02-14T02:33:54.603Z,103074.37
2019-02-14T02:36:24.549Z,103071.88
2019-02-14T02:38:54.839Z,103073.22
2019-02-14T02:41:24.777Z,103072.02
2019-02-14T02:43:55.063Z,103073.84
2019-02-14T02:46:24.864Z,103068.56
2019-02-14T02:48:54.724Z,103074.64
2019-02-14T02:51:24.594Z,103073.32
2019-02-14T02:53:54.386Z,103085.09
2019-02-14T02:56:24.273Z,103077.33
2019-02-14T02:58:54.222Z,103087.41
2019-02-14T03:01:24.158Z,103081.39
2019-02-14T03:03:54.149Z,103078.02
2019-02-14T03:06:24.080Z,103075.91
2019-02-14T03:08:54.999Z,103073.77
2019-02-14T03:11:24.891Z,103074.26
2019-02-14T03:13:55.821Z,103071.23
2019-02-14T03:16:25.784Z,103072.55
2019-02-14T03:18:55.566Z,103076.46
2019-02-14T03:21:25.441Z,103078.65
2019-02-14T03:23:55.312Z,103077.78
2019-02-14T03:26:26.248Z,103074.73
2019-02-14T03:28:56.390Z,103071.69
2019-02-14T03:31:26.379Z,103066.89
2019-02-14T03:33:56.584Z,103065.58
2019-02-14T03:36:26.457Z,103065.52
2019-02-14T03:38:56.397Z,103068.17
2019-02-14T03:41:26.564Z,103086.86
2019-02-14T03:43:56.811Z,103082.09
2019-02-14T03:46:26.753Z,103088.61
2019-02-14T03:48:56.699Z,103079.08
2019-02-14T03:51:26.809Z,103079.52
2019-02-14T03:53:57.101Z,103081.27
2019-02-14T03:56:27.012Z,103086.08
2019-02-14T03:58:56.951Z,103077.87
2019-02-14T04:01:26.815Z,103078.77
2019-02-14T04:03:57.776Z,103084.41
2019-02-14T04:06:27.883Z,103082.23
2019-02-14T04:08:58.523Z,103083.98
2019-02-14T04:11:28.636Z,103084.84
2019-02-14T04:13:58.432Z,103084.84
2019-02-14T04:16:28.297Z,103084.47
2019-02-14T04:18:58.162Z,103084.09
2019-02-14T04:21:28.042Z,103096.75
2019-02-14T04:23:58.909Z,103097.70
2019-02-14T04:26:28.854Z,103094.64
2019-02-14T04:28:59.158Z,103100.30
2019-02-14T04:31:29.035Z,103102.94
2019-02-14T04:33:58.933Z,103105.55
2019-02-14T04:36:35.775Z,103100.33
2019-02-14T04:39:00.901Z,103107.30
2019-02-14T04:41:32.701Z,103108.20
2019-02-14T04:44:02.600Z,103109.52
2019-02-14T04:46:33.622Z,103112.58
2019-02-14T04:49:03.603Z,103120.85
2019-02-14T04:51:33.481Z,103123.94
2019-02-14T04:54:03.429Z,103118.31
2019-02-14T04:56:33.687Z,103113.99
2019-02-14T04:59:03.960Z,103107.05
2019-02-14T05:01:34.087Z,103109.62
2019-02-14T05:04:04.320Z,103103.91
2019-02-14T05:06:34.537Z,103106.92
2019-02-14T05:09:06.925Z,103110.82
2019-02-14T05:11:37.209Z,103117.77
2019-02-14T05:14:07.755Z,103108.22
2019-02-14T05:16:37.713Z,103104.75
2019-02-14T05:19:07.959Z,103103.51
2019-02-14T05:21:37.831Z,103106.07
2019-02-14T05:24:07.623Z,103109.55
2019-02-14T05:26:37.905Z,103109.10
2019-02-14T05:29:07.773Z,103111.70
2019-02-14T05:31:37.991Z,103110.37
2019-02-14T05:34:07.926Z,103106.44
2019-02-14T05:36:38.419Z,103105.55
2019-02-14T05:39:08.365Z,103102.52
2019-02-14T05:41:38.317Z,103109.48
2019-02-14T05:44:08.189Z,103109.06
2019-02-14T05:46:38.351Z,103113.87
2019-02-14T05:49:08.292Z,103113.52
2019-02-14T05:51:38.507Z,103116.59
2019-02-14T05:54:08.459Z,103111.38
2019-02-14T05:56:38.398Z,103112.27
2019-02-14T05:59:08.357Z,103111.83
2019-02-14T06:01:38.175Z,103118.33
2019-02-14T06:04:08.599Z,103113.10
2019-02-14T06:06:38.476Z,103119.63
2019-02-14T06:09:09.421Z,103126.60
2019-02-14T06:11:39.240Z,103125.32
2019-02-14T06:14:09.191Z,103134.47
2019-02-14T06:16:39.138Z,103134.95
2019-02-14T06:19:09.281Z,103138.02
2019-02-14T06:21:39.149Z,103143.66
2019-02-14T06:24:09.253Z,103143.23
2019-02-14T06:26:39.114Z,103141.06
2019-02-14T06:29:08.911Z,103133.27
2019-02-14T06:31:39.090Z,103143.28
2019-02-14T06:34:09.307Z,103149.39
2019-02-14T06:36:39.532Z,103154.22
2019-02-14T06:39:09.435Z,103154.65
2019-02-14T06:41:39.305Z,103161.56
2019-02-14T06:44:09.189Z,103164.59
2019-02-14T06:46:39.058Z,103174.13
2019-02-14T06:49:08.847Z,103179.34
2019-02-14T06:51:39.122Z,103178.44
2019-02-14T06:54:09.357Z,103180.16
2019-02-14T06:56:39.291Z,103173.14
2019-02-14T06:59:09.445Z,103173.57
2019-02-14T07:01:39.613Z,103184.84
2019-02-14T07:04:09.475Z,103178.75
2019-02-14T07:06:39.347Z,103180.05
2019-02-14T07:09:09.253Z,103181.78
2019-02-14T07:11:39.117Z,103175.24
2019-02-14T07:14:09.015Z,103168.28
2019-02-14T07:16:39.209Z,103166.09
2019-02-14T07:19:09.157Z,103166.53
2019-02-14T07:21:38.946Z,103171.33
2019-02-14T07:24:08.878Z,103178.73
2019-02-14T07:26:38.826Z,103173.95
2019-02-14T07:29:08.690Z,103169.60
2019-02-14T07:31:39.553Z,103176.53
2019-02-14T07:34:09.363Z,103180.00
2019-02-14T07:36:39.226Z,103182.56
2019-02-14T07:39:11.035Z,103187.78
2019-02-14T07:41:40.809Z,103189.08
2019-02-14T07:44:10.687Z,103196.03
2019-02-14T09:09:02.263Z,103183.78
2019-02-14T09:11:33.754Z,103186.38
2019-02-14T09:14:03.628Z,103185.41
2019-02-14T09:16:33.812Z,103185.33
2019-02-14T09:19:03.689Z,103190.91
2019-02-14T09:21:33.634Z,103187.29
2019-02-14T09:24:03.810Z,103189.37
2019-02-14T09:26:33.696Z,103184.03
2019-02-14T09:29:03.656Z,103182.64
2019-02-14T09:31:33.571Z,103187.72
2019-02-14T09:34:03.520Z,103188.08
2019-02-14T09:36:34.443Z,103189.23
2019-02-14T09:39:05.296Z,103186.51
2019-02-14T09:41:35.191Z,103179.81
2019-02-14T09:44:05.477Z,103179.25
2019-02-14T09:46:35.406Z,103178.64
2019-02-14T09:49:05.364Z,103178.94
2019-02-14T09:51:35.355Z,103178.30
2019-02-14T09:54:05.315Z,103174.99
2019-02-14T09:56:35.610Z,103180.45
2019-02-14T09:59:05.589Z,103179.73
2019-02-14T10:01:35.792Z,103181.95
2019-02-14T10:04:05.670Z,103179.77
2019-02-14T10:06:36.904Z,103173.70
2019-02-14T10:09:08.380Z,103166.43
2019-02-14T10:11:38.923Z,103166.05
2019-02-14T10:14:08.879Z,103156.94
2019-02-14T10:16:38.783Z,103154.93
2019-02-14T10:19:09.082Z,103151.23
2019-02-14T10:21:38.900Z,103166.75
2019-02-14T10:24:08.860Z,103148.61
2019-02-14T10:26:38.819Z,103153.07
2019-02-14T10:29:09.036Z,103159.70
2019-02-14T10:31:39.015Z,103153.76
2019-02-14T10:34:09.173Z,103160.58
2019-02-14T10:36:39.513Z,103163.50
2019-02-14T10:39:09.407Z,103159.89
2019-02-14T10:41:39.379Z,103161.83
2019-02-14T10:44:09.365Z,103160.72
2019-02-14T10:46:39.776Z,103159.93
2019-02-14T10:49:09.734Z,103160.50
2019-02-14T10:51:39.612Z,103160.28
2019-02-14T10:54:09.483Z,103162.57
2019-02-14T10:56:39.734Z,103167.38
2019-02-14T10:59:09.682Z,103166.48
2019-02-14T11:01:39.759Z,103159.81
2019-02-14T11:04:09.968Z,103161.98
2019-02-14T11:06:40.254Z,103157.91
2019-02-14T11:09:10.286Z,103157.79
2019-02-14T11:11:40.249Z,103166.77
2019-02-14T11:14:10.469Z,103162.72
2019-02-14T11:16:40.594Z,103153.28
2019-02-14T11:19:10.544Z,103147.38
2019-02-14T11:21:40.500Z,103149.37
2019-02-14T11:24:10.371Z,103147.59
2019-02-14T11:26:40.261Z,103143.44
2019-02-14T11:29:10.078Z,103136.86
2019-02-14T11:31:40.281Z,103131.98
2019-02-14T11:34:10.164Z,103133.93
2019-02-14T11:36:40.129Z,103134.84
2019-02-14T11:39:10.835Z,103122.35
2019-02-14T11:41:40.872Z,103127.09
2019-02-14T11:44:10.753Z,103119.23
2019-02-14T11:46:40.899Z,103120.04
2019-02-14T11:49:11.012Z,103110.56
2019-02-14T11:51:40.980Z,103108.28
2019-02-14T11:54:11.704Z,103112.53
2019-02-14T11:56:41.720Z,103106.67
2019-02-14T11:59:11.680Z,103107.42
2019-02-14T12:01:41.685Z,103108.67
2019-02-14T12:04:11.587Z,103106.62
2019-02-14T12:06:41.939Z,103097.16
2019-02-14T12:09:11.987Z,103094.91
2019-02-14T12:11:42.238Z,103091.05
2019-02-14T12:14:12.247Z,103086.61
2019-02-14T12:16:42.189Z,103079.08
2019-02-14T12:19:12.149Z,103077.87
2019-02-14T12:21:42.026Z,103076.39
2019-02-14T12:24:11.902Z,103073.44
2019-02-14T12:26:41.765Z,103071.07
2019-02-14T12:29:11.715Z,103070.33
2019-02-14T12:31:41.594Z,103061.87
2019-02-14T12:34:11.467Z,103055.91
2019-02-14T12:36:41.347Z,103054.30
2019-02-14T12:39:11.760Z,103051.88
2019-02-14T12:41:41.846Z,103049.30
2019-02-14T12:44:11.726Z,103037.86
2019-02-14T12:46:41.611Z,103038.65
2019-02-14T12:49:11.485Z,103029.39
2019-02-14T12:51:42.497Z,103033.29
2019-02-14T12:54:12.669Z,103025.42
2019-02-14T12:56:42.852Z,103013.52
2019-02-14T12:59:12.729Z,103019.06
2019-02-14T13:01:42.610Z,103019.60
2019-02-14T13:04:12.952Z,103020.20
2019-02-14T13:06:42.845Z,103009.55
2019-02-14T13:09:19.625Z,103006.63
2019-02-14T13:11:45.772Z,103009.19
2019-02-14T13:14:15.642Z,103007.64
2019-02-14T13:16:45.603Z,103007.20
2019-02-14T13:19:15.562Z,103006.66
2019-02-14T13:21:45.831Z,103004.16
2019-02-14T13:24:15.948Z,103006.88
2019-02-14T13:26:45.845Z,103003.08
2019-02-14T13:29:16.138Z,103003.29
2019-02-14T13:31:46.040Z,103002.97
2019-02-14T13:34:15.916Z,103000.83
2019-02-14T13:36:46.030Z,102993.63
2019-02-14T13:39:17.424Z,102986.33
2019-02-14T13:41:47.315Z,102987.16
2019-02-14T13:44:18.041Z,102987.88
2019-02-14T13:46:48.247Z,102990.50
2019-02-14T13:49:18.123Z,102987.92
2019-02-14T13:51:48.085Z,102991.75
2019-02-14T13:54:19.840Z,102986.67
2019-02-14T13:56:54.151Z,102983.24
2019-02-14T13:59:21.972Z,102972.30
2019-02-14T14:01:52.791Z,102969.25
2019-02-14T14:04:22.725Z,102970.11
2019-02-14T14:06:52.704Z,102969.09
2019-02-14T14:09:22.682Z,102966.62
2019-02-14T14:11:54.503Z,102963.72
2019-02-14T14:14:24.425Z,102956.41
2019-02-14T14:16:54.905Z,102962.91
2019-02-14T14:19:24.814Z,102949.36
2019-02-14T14:21:54.754Z,102955.58
2019-02-14T14:24:24.701Z,102948.67
2019-02-14T14:26:54.516Z,102954.06
2019-02-14T14:29:24.473Z,102951.77
2019-02-14T14:31:54.426Z,102945.66
2019-02-14T14:34:24.310Z,102942.71
2019-02-14T14:36:54.283Z,102940.88
2019-02-14T14:39:24.170Z,102941.72
2019-02-14T14:41:54.138Z,102938.32
2019-02-14T14:44:34.743Z,102934.19
2019-02-14T14:47:10.416Z,102931.98
2019-02-14T14:49:40.462Z,102930.98
2019-02-14T14:52:10.415Z,102931.17
2019-02-14T14:54:40.615Z,102936.64
2019-02-14T14:57:10.480Z,102929.73
2019-02-14T14:59:40.440Z,102929.50
2019-02-14T15:02:10.383Z,102930.56
2019-02-14T15:04:40.342Z,102925.66
2019-02-14T15:07:10.806Z,102924.52
2019-02-14T15:09:40.675Z,102922.95
2019-02-14T15:12:10.834Z,102921.00
2019-02-14T15:14:41.406Z,102918.95
2019-02-14T15:17:11.296Z,102917.30
2019-02-14T15:19:41.201Z,102907.58
2019-02-14T15:22:11.093Z,102907.35
2019-02-14T15:24:40.900Z,102911.89
2019-02-14T15:27:10.806Z,102898.88
2019-02-14T15:29:40.955Z,102900.53
2019-02-14T15:32:10.925Z,102894.13
2019-02-14T15:34:40.880Z,102887.86
2019-02-14T15:37:12.631Z,102888.02
2019-02-14T15:39:42.330Z,102889.57
2019-02-14T15:42:12.288Z,102889.91
2019-02-14T15:44:42.626Z,102887.95
2019-02-14T15:47:12.531Z,102889.22
2019-02-14T15:49:42.399Z,102885.05
2019-02-14T15:52:12.538Z,102883.81
2019-02-14T15:54:42.520Z,102888.95
2019-02-14T15:57:16.510Z,102877.34
2019-02-14T15:59:47.801Z,102884.05
2019-02-14T16:02:17.763Z,102887.69
2019-02-14T16:04:47.713Z,102891.92
2019-02-14T16:07:17.702Z,102888.28
2019-02-14T16:09:48.810Z,102892.94
2019-02-14T16:12:20.129Z,102896.14
2019-02-14T16:14:51.731Z,102892.19
2019-02-14T16:17:22.022Z,102889.05
2019-02-14T16:19:52.254Z,102884.59
2019-02-14T16:22:29.850Z,102888.93
2019-02-14T16:24:53.875Z,102889.72
2019-02-14T16:27:25.153Z,102884.72
2019-02-14T16:29:56.155Z,102878.40
2019-02-14T16:32:26.141Z,102890.29
2019-02-14T16:34:56.542Z,102890.81
2019-02-14T16:37:26.820Z,102890.38
2019-02-14T16:39:58.456Z,102896.11
2019-02-14T16:42:28.500Z,102897.94
2019-02-14T16:44:58.456Z,102894.52
2019-02-14T16:47:28.408Z,102894.70
2019-02-14T16:49:58.438Z,102895.78
2019-02-14T16:52:28.381Z,102902.54
2019-02-14T16:54:58.624Z,102901.83
2019-02-14T16:57:28.565Z,102904.18
2019-02-14T16:59:58.796Z,102902.94
2019-02-14T17:02:28.721Z,102911.37
2019-02-14T17:04:58.673Z,102910.02
2019-02-14T17:07:28.499Z,102903.82
2019-02-14T17:09:58.469Z,102901.55
2019-02-14T17:12:28.662Z,102895.34
2019-02-14T17:14:58.854Z,102907.89
2019-02-14T17:17:29.086Z,102914.28
2019-02-14T17:19:59.028Z,102919.90
2019-02-14T17:22:28.956Z,102917.18
2019-02-14T17:24:58.929Z,102917.47
2019-02-14T17:27:28.793Z,102918.23
2019-02-14T17:29:58.965Z,102920.69
2019-02-14T17:32:28.900Z,102919.11
2019-02-14T17:34:58.772Z,102914.47
2019-02-14T17:37:28.700Z,102921.61
2019-02-14T17:39:58.571Z,102918.83
2019-02-14T17:42:28.586Z,102913.72
2019-02-14T17:44:58.456Z,102917.42
2019-02-14T17:47:28.762Z,102916.76
2019-02-14T17:49:59.299Z,102913.88
2019-02-14T17:52:30.956Z,102921.87
2019-02-14T17:55:00.893Z,102926.52
2019-02-14T17:57:30.828Z,102926.62
2019-02-14T18:00:00.710Z,102925.46
2019-02-14T18:02:30.925Z,102926.61
2019-02-14T18:05:01.145Z,102924.08
2019-02-14T18:07:31.002Z,102930.32
2019-02-14T18:10:01.083Z,102930.47
2019-02-14T18:12:31.097Z,102929.74
2019-02-14T18:15:01.078Z,102928.53
2019-02-14T18:17:31.108Z,102927.72
2019-02-14T18:20:00.977Z,102926.09
2019-02-14T18:22:31.015Z,102930.55
2019-02-14T18:25:00.999Z,102928.37
2019-02-14T18:27:31.108Z,102926.19
2019-02-14T18:30:01.201Z,102923.19
2019-02-14T18:32:31.736Z,102921.06
2019-02-14T18:35:01.690Z,102925.52
2019-02-14T18:37:31.800Z,102924.30
2019-02-14T18:40:02.104Z,102926.11
2019-02-14T18:42:33.233Z,102924.03
2019-02-14T18:45:03.220Z,102921.86
2019-02-14T18:47:39.460Z,102924.48
2019-02-14T18:50:06.631Z,102925.02
2019-02-14T18:52:36.667Z,102921.17
2019-02-14T18:55:07.332Z,102926.03
2019-02-14T18:57:37.291Z,102922.68
2019-02-14T19:00:10.405Z,102916.25
2019-02-14T19:02:40.654Z,102922.91
2019-02-14T19:05:11.962Z,102919.11
2019-02-14T19:07:42.312Z,102919.24
2019-02-14T19:10:12.834Z,102922.41
2019-02-14T19:12:43.033Z,102930.06
2019-02-14T19:15:13.021Z,102935.04
2019-02-14T19:17:42.939Z,102935.63
2019-02-14T19:20:12.901Z,102928.83
2019-02-14T19:22:42.812Z,102924.56
2019-02-14T19:25:12.799Z,102922.48
2019-02-14T19:27:44.159Z,102920.80
2019-02-14T19:30:14.569Z,102916.58
2019-02-14T19:32:44.502Z,102917.08
2019-02-14T19:35:22.832Z,102916.67
2019-02-14T19:37:46.098Z,102914.09
2019-02-14T19:40:16.479Z,102920.24
2019-02-14T19:42:46.334Z,102916.30
2019-02-14T19:45:16.300Z,102916.30
2019-02-14T19:47:46.411Z,102914.09
2019-02-14T19:50:16.391Z,102915.36
2019-02-14T19:52:46.610Z,102909.25
2019-02-14T19:55:16.569Z,102914.86
2019-02-14T19:57:46.741Z,102911.73
2019-02-14T20:00:17.061Z,102914.77
2019-02-14T20:02:46.919Z,102914.77
2019-02-14T20:05:16.924Z,102913.91
2019-02-14T20:07:47.118Z,102913.95
2019-02-14T20:10:17.493Z,102915.67
2019-02-14T20:12:47.455Z,102915.27
2019-02-14T20:15:17.684Z,102906.90
2019-02-14T20:17:47.681Z,102907.30
2019-02-14T20:20:17.632Z,102904.72
2019-02-14T20:22:47.562Z,102906.98
2019-02-14T20:25:19.008Z,102907.98
2019-02-14T20:27:50.030Z,102910.23
2019-02-14T20:30:20.124Z,102909.47
2019-02-14T20:32:50.087Z,102910.85
2019-02-14T20:35:20.006Z,102915.16
2019-02-14T20:37:49.892Z,102909.55
2019-02-14T20:40:19.992Z,102904.74
2019-02-14T20:42:49.921Z,102906.05
2019-02-14T20:45:19.873Z,102906.05
2019-02-14T20:47:50.925Z,102903.43
2019-02-14T20:50:21.235Z,102908.61
2019-02-14T20:52:51.186Z,102902.41
2019-02-14T20:55:21.214Z,102904.53
2019-02-14T20:57:51.160Z,102893.59
2019-02-14T21:00:35.199Z,102897.16
2019-02-14T21:03:05.339Z,102896.80
2019-02-14T21:05:35.956Z,102904.74
2019-02-14T21:08:05.900Z,102899.12
2019-02-14T21:10:35.849Z,102900.53
2019-02-14T21:13:06.241Z,102901.97
2019-02-14T21:15:36.188Z,102901.56
2019-02-14T21:18:06.152Z,102897.75
2019-02-14T21:20:38.896Z,102897.83
2019-02-14T21:23:08.864Z,102903.16
2019-02-14T21:25:38.755Z,102898.04
2019-02-14T21:28:08.819Z,102895.88
2019-02-14T21:30:38.824Z,102894.97
2019-02-14T21:33:09.066Z,102904.15
2019-02-14T21:35:39.211Z,102898.91
2019-02-14T21:38:09.124Z,102896.28
2019-02-14T21:40:39.252Z,102894.06
2019-02-14T21:43:09.175Z,102895.78
2019-02-14T21:45:39.299Z,102892.75
2019-02-14T21:48:09.306Z,102898.49
2019-02-14T21:50:39.520Z,102903.33
2019-02-14T21:53:10.446Z,102906.07
2019-02-14T21:55:41.472Z,102902.22
2019-02-14T21:58:11.593Z,102903.61
2019-02-14T22:00:41.612Z,102901.56
2019-02-14T22:03:12.178Z,102899.95
2019-02-14T22:05:42.098Z,102900.04
2019-02-14T22:08:12.137Z,102897.50
2019-02-14T22:10:42.057Z,102908.48
2019-02-14T22:13:12.300Z,102906.34
2019-02-14T22:15:42.606Z,102901.59
2019-02-14T22:18:12.554Z,102897.70
2019-02-14T22:20:42.493Z,102899.53
2019-02-14T22:23:12.463Z,102894.33
2019-02-14T22:25:42.616Z,102895.23
2019-02-14T22:28:12.574Z,102895.27
2019-02-14T22:30:42.475Z,102895.30
2019-02-14T22:33:12.427Z,102896.70
2019-02-14T22:35:42.461Z,102895.02
2019-02-14T22:38:12.415Z,102893.33
2019-02-14T22:40:42.315Z,102893.86
2019-02-14T22:43:12.184Z,102894.83
2019-02-14T22:45:42.399Z,102895.77
2019-02-14T22:48:12.657Z,102894.95
2019-02-14T22:50:42.599Z,102893.67
2019-02-14T22:53:12.799Z,102904.16
2019-02-14T22:55:42.758Z,102896.38
2019-02-14T22:58:12.633Z,102905.13
2019-02-14T23:00:47.312Z,102909.06
2019-02-14T23:03:17.718Z,102905.13
2019-02-14T23:05:47.662Z,102910.45
2019-02-14T23:08:17.614Z,102902.17
2019-02-14T23:10:47.873Z,102909.21
2019-02-14T23:13:17.830Z,102904.45
2019-02-14T23:15:47.767Z,102905.80
2019-02-14T23:18:17.721Z,102913.25
2019-02-14T23:20:48.724Z,102905.95
2019-02-14T23:23:19.363Z,102912.20
2019-02-14T23:25:49.311Z,102907.92
2019-02-14T23:28:19.204Z,102908.86
2019-02-14T23:30:48.997Z,102909.34
2019-02-14T23:33:18.948Z,102904.25
2019-02-14T23:35:49.666Z,102903.42
2019-02-14T23:38:19.629Z,102907.00
2019-02-14T23:40:49.777Z,102907.87
2019-02-14T23:43:22.661Z,102903.08
2019-02-14T23:45:52.607Z,102901.73
2019-02-14T23:48:22.471Z,102903.45
2019-02-14T23:50:52.340Z,102910.86
2019-02-14T23:53:22.610Z,102913.48
2019-02-14T23:55:52.571Z,102905.70
2019-02-14T23:58:22.548Z,102906.14
